Aérodrome :
LOGIN :

S'inscrire | Disclaimer

   EN    FR    IT 

 










Légende :    VFR   VFR Marginal   IFR   IFR Intensif   IFR Très Intensif
Visi : 
Plafond : 
>= 8 km
>= 3000ft
5 à 8 km
1000 à 3000 ft
1500m à 5 km
500 à 1000 ft
800 à 1500m
200 à 500 ft
< 800m
< 200 ft
Symboles :   Orages  Brouillard  Fortes neiges  Fortes précipitations  Vent > 20 kt
SIGMETs :   Divers  Orages  Givrage  Turbulence  Onde Orograph.  Cendres Volcan.






- Altitude de l'aérodrome : 427 ft
- Code IATA : KBP


UKBB - Boryspil'

DERNIER METAR :
  • 090930Z 21006MPS CAVOK 06/01 Q1011 R18L/290045 R18R/350140 NOSIG

METARs EXPIRÉS :
  • 090900Z 21006MPS CAVOK 05/01 Q1011 R18L/290045 R18R/350140 NOSIG
  • 090830Z 19005MPS CAVOK 04/01 Q1011 R18L/290045 R18R/350140 NOSIG
  • 090800Z 20004MPS CAVOK 03/01 Q1011 R18L/290045 R18R/350140 NOSIG
  • 090730Z 20004MPS CAVOK 02/01 Q1011 R18L/290045 R18R/350140 NOSIG
  • 090700Z 20004MPS CAVOK 01/M00 Q1011 R18L/290045 R18R/350140 NOSIG

TAF TAF UKBB
Valide du 09 à 06h jusqu'au 10 à 06h UTC


090502Z 0906/1006 19006G13MPS 9999 BKN015 TX06/0912Z TN00/1005Z
TEMPO 0906/0908 2000 BR BKN007
BECMG 0918/0920 19003G08MPS 6000 BKN007
TEMPO 0920/1006 1000 BR BKN003



MET'MAP, la Météo Aéronautique d'un coup d'oeil ! - Copyright ORBIFLY Décembre 2007 - Disclaimer

ORBIFLY MET'MAP TEAM :

Programmation & Développement : Alexandra Zaïnal
Sur une idée originale de : Baudouin d'Aumeries
Assistance à la programmation : Marc-Olivier Méhu
Soutien technique & logistique : Manuel Goepfert

Contact : metmap@orbifly.com




SOURCES & CREDITS :

   NOAA